Pagrindinis puslapis
METAR-TAF:

METAR-TAF

Oro uostai :

White Mountain, Aliaska, Jungtinės Amerikos Valstijos

platuma: 64-41-21N, ilguma: 163-24-46W, Aukštis: 81 m

Dabartinis oras

Ataskaita buvo paskelbta 1 valandą ir 1 minutes, ne 16:56 UTC
Vėjas 4 kt iš Rytų/Šiaurės Rytų
Temperatūra 0°C
Drėgmė 93%
Slėgis 1031 hPa
Matomumas: 16.1 km
Giedras dangus

METAR: PAWM 221656Z AUTO 07004KT 10SM CLR 00/M01 A3044 RMK AO2 SLP313 T00001006 FZRANO PNO $

Laikas: 09:57 (17:57 UTC)


TAF: trūkstamas

Orai ataskaitas ir orų prognozės (METAR, TAF).

turimą stotys yra geltonos ir raudonos taškus žemėlapyje.

Perkelti pele per norėdami pamatyti stoties vardą.

Tada spustelėkite, norėdami matyti oro stebėjimo ir prognozės.

Norėdami pakeisti žemėlapį: spustelėkite ant žalios mygtukų su juodo kryžiaus žemyn,; žalią mygtuką su brūkšneliu, jei norite nutolinti; arba žalių rodyklių gretimoms žemėlapius.


METAR-TAF: